createdAt,value
2023-04-24T00:01:43.942Z,12.30
2023-04-24T00:04:12.277Z,12.20
2023-04-24T00:06:39.765Z,12.20
2023-04-24T00:09:06.863Z,12.20
2023-04-24T00:11:34.777Z,12.10
2023-04-24T00:14:01.893Z,12.00
2023-04-24T00:16:29.517Z,12.00
2023-04-24T00:18:56.685Z,11.90
2023-04-24T00:21:26.690Z,11.90
2023-04-24T00:23:54.526Z,11.80
2023-04-24T00:26:21.951Z,11.80
2023-04-24T00:28:49.067Z,11.70
2023-04-24T00:31:16.493Z,11.60
2023-04-24T00:33:43.699Z,11.60
2023-04-24T00:36:11.496Z,11.50
2023-04-24T00:38:38.613Z,11.50
2023-04-24T00:41:06.042Z,11.40
2023-04-24T00:43:33.176Z,11.40
2023-04-24T00:46:02.759Z,11.40
2023-04-24T00:48:30.526Z,11.40
2023-04-24T00:50:59.844Z,11.40
2023-04-24T00:53:26.991Z,11.70
2023-04-24T00:55:54.992Z,11.30
2023-04-24T00:58:22.232Z,11.30
2023-04-24T01:00:54.088Z,11.30
2023-04-24T01:03:23.792Z,11.30
2023-04-24T01:05:52.064Z,11.30
2023-04-24T01:08:21.070Z,11.40
2023-04-24T01:10:49.666Z,11.40
2023-04-24T01:13:16.832Z,11.30
2023-04-24T01:15:46.399Z,11.30
2023-04-24T01:18:14.129Z,11.30
2023-04-24T01:20:44.088Z,11.30
2023-04-24T01:23:12.504Z,11.30
2023-04-24T01:25:40.566Z,11.30
2023-04-24T01:28:07.861Z,11.30
2023-04-24T01:30:35.271Z,11.30
2023-04-24T01:33:02.642Z,11.30
2023-04-24T01:35:30.246Z,11.30
2023-04-24T01:37:57.370Z,11.30
2023-04-24T01:40:26.078Z,11.20
2023-04-24T01:42:53.965Z,11.20
2023-04-24T01:45:21.409Z,11.20
2023-04-24T01:47:49.975Z,11.40
2023-04-24T01:50:18.881Z,11.10
2023-04-24T01:52:46.379Z,11.10
2023-04-24T01:55:13.771Z,11.10
2023-04-24T01:57:41.314Z,11.00
2023-04-24T02:00:09.492Z,11.10
2023-04-24T02:02:44.917Z,10.90
2023-04-24T02:05:14.536Z,10.90
2023-04-24T02:07:41.544Z,10.80
2023-04-24T02:10:10.805Z,10.80
2023-04-24T02:12:42.620Z,10.70
2023-04-24T02:15:10.425Z,10.60
2023-04-24T02:17:38.621Z,10.60
2023-04-24T02:20:07.693Z,11.10
2023-04-24T02:22:34.875Z,10.50
2023-04-24T02:25:03.514Z,10.40
2023-04-24T02:27:31.278Z,10.40
2023-04-24T02:29:58.646Z,10.30
2023-04-24T02:32:25.763Z,10.30
2023-04-24T02:34:53.260Z,10.20
2023-04-24T02:37:20.580Z,10.20
2023-04-24T02:39:47.938Z,10.30
2023-04-24T02:42:15.093Z,10.10
2023-04-24T02:44:42.649Z,10.00
2023-04-24T02:47:09.978Z,10.10
2023-04-24T02:49:37.341Z,10.00
2023-04-24T02:52:04.551Z,9.80
2023-04-24T02:54:31.938Z,9.90
2023-04-24T02:56:59.108Z,9.90
2023-04-24T02:59:28.265Z,9.80
2023-04-24T03:01:55.863Z,9.80
2023-04-24T03:04:24.143Z,10.00
2023-04-24T03:06:53.785Z,9.80
2023-04-24T03:09:24.805Z,9.80
2023-04-24T03:11:52.083Z,9.80
2023-04-24T03:14:19.426Z,9.80
2023-04-24T03:16:46.424Z,9.80
2023-04-24T03:19:13.879Z,9.80
2023-04-24T03:21:55.840Z,9.80
2023-04-24T03:24:23.702Z,10.00
2023-04-24T03:26:51.449Z,9.90
2023-04-24T03:29:34.824Z,9.80
2023-04-24T03:32:02.632Z,9.90
2023-04-24T03:34:29.984Z,9.90
2023-04-24T03:36:58.231Z,9.90
2023-04-24T03:39:26.404Z,9.90
2023-04-24T03:41:56.877Z,10.00
2023-04-24T03:44:33.550Z,9.90
2023-04-24T03:47:01.201Z,10.00
2023-04-24T03:49:28.736Z,10.10
2023-04-24T03:51:56.161Z,10.10
2023-04-24T03:54:26.418Z,10.10
2023-04-24T03:56:54.835Z,10.20
2023-04-24T03:59:22.236Z,10.20
2023-04-24T04:02:00.567Z,10.20
2023-04-24T04:04:28.736Z,10.20
2023-04-24T04:06:56.025Z,10.30
2023-04-24T04:09:25.333Z,10.30
2023-04-24T04:11:52.431Z,10.30
2023-04-24T04:14:19.845Z,10.30
2023-04-24T04:16:48.936Z,10.40
2023-04-24T04:19:16.368Z,10.40
2023-04-24T04:21:43.740Z,10.50
2023-04-24T04:24:25.158Z,10.40
2023-04-24T04:26:53.597Z,10.50
2023-04-24T04:29:27.073Z,10.50
2023-04-24T04:31:54.891Z,10.50
2023-04-24T04:34:23.630Z,10.50
2023-04-24T04:36:54.827Z,10.50
2023-04-24T04:39:42.646Z,10.70
2023-04-24T04:42:23.479Z,10.70
2023-04-24T04:44:51.862Z,10.70
2023-04-24T04:47:24.502Z,10.70
2023-04-24T04:49:53.990Z,10.80
2023-04-24T04:52:28.208Z,10.80
2023-04-24T04:55:15.794Z,10.90
2023-04-24T04:58:05.726Z,11.00
2023-04-24T05:00:36.746Z,11.10
2023-04-24T05:03:19.936Z,11.20
2023-04-24T05:05:52.879Z,11.20
2023-04-24T05:08:27.212Z,11.30
2023-04-24T05:10:56.496Z,11.40
2023-04-24T05:13:38.371Z,11.50
2023-04-24T05:16:15.980Z,11.60
2023-04-24T05:18:43.431Z,11.70
2023-04-24T05:21:14.449Z,11.80
2023-04-24T05:23:43.707Z,11.90
2023-04-24T05:26:16.735Z,12.00
2023-04-24T05:28:43.743Z,12.00
2023-04-24T05:31:13.721Z,12.20
2023-04-24T05:33:41.091Z,12.30
2023-04-24T05:36:09.015Z,12.40
2023-04-24T05:38:36.779Z,12.50
2023-04-24T05:41:04.391Z,12.60
2023-04-24T05:43:31.572Z,12.70
2023-04-24T05:45:58.997Z,12.80
2023-04-24T05:48:26.310Z,12.90
2023-04-24T05:50:53.879Z,13.00
2023-04-24T05:53:20.975Z,13.00
2023-04-24T05:55:48.842Z,13.20
2023-04-24T05:58:16.462Z,13.20
2023-04-24T06:00:45.487Z,13.30
2023-04-24T06:03:13.299Z,13.40
2023-04-24T06:05:41.971Z,13.50
2023-04-24T06:08:09.466Z,13.60
2023-04-24T06:10:40.066Z,13.70
2023-04-24T06:13:09.181Z,13.80
2023-04-24T06:15:39.916Z,13.90
2023-04-24T06:18:20.470Z,14.00
2023-04-24T06:20:49.598Z,14.10
2023-04-24T06:23:17.025Z,14.20
2023-04-24T06:25:44.382Z,14.30
2023-04-24T06:28:13.965Z,14.40
2023-04-24T06:30:42.183Z,14.60
2023-04-24T06:33:20.409Z,14.80
2023-04-24T06:35:49.555Z,14.90
2023-04-24T06:38:17.449Z,15.10
2023-04-24T06:40:45.212Z,15.20
2023-04-24T06:43:12.314Z,15.40
2023-04-24T06:45:40.864Z,15.40
2023-04-24T06:48:08.215Z,15.50
2023-04-24T06:50:36.398Z,15.60
2023-04-24T06:53:03.522Z,15.70
2023-04-24T06:55:30.958Z,15.80
2023-04-24T06:57:58.102Z,15.90
2023-04-24T07:00:25.606Z,16.00
2023-04-24T07:02:52.992Z,16.10
2023-04-24T07:05:24.438Z,16.20
2023-04-24T07:07:52.382Z,16.30
2023-04-24T07:10:19.923Z,16.40
2023-04-24T07:12:48.000Z,16.50
2023-04-24T07:15:15.562Z,16.60
2023-04-24T07:17:45.373Z,16.70
2023-04-24T07:20:15.391Z,16.70
2023-04-24T07:22:42.616Z,16.80
2023-04-24T07:25:10.317Z,16.90
2023-04-24T07:27:37.628Z,17.10
2023-04-24T07:30:06.001Z,17.20
2023-04-24T07:32:33.113Z,17.30
2023-04-24T07:35:00.641Z,17.40
2023-04-24T07:37:29.551Z,17.60
2023-04-24T07:39:56.955Z,17.70
2023-04-24T07:42:24.135Z,17.80
2023-04-24T07:44:55.004Z,17.90
2023-04-24T07:47:22.313Z,18.10
2023-04-24T07:49:49.667Z,18.30
2023-04-24T07:52:16.686Z,18.40
2023-04-24T07:54:44.197Z,18.50
2023-04-24T07:57:11.609Z,18.60
2023-04-24T07:59:38.891Z,18.70
2023-04-24T08:02:07.197Z,18.80
2023-04-24T08:04:34.865Z,18.80
2023-04-24T08:07:02.079Z,18.80
2023-04-24T08:09:29.969Z,18.80
2023-04-24T08:11:57.721Z,18.80
2023-04-24T08:14:25.139Z,18.90
2023-04-24T08:16:56.322Z,18.80
2023-04-24T08:19:26.291Z,18.80
2023-04-24T08:21:53.438Z,18.80
2023-04-24T08:24:20.856Z,18.80
2023-04-24T08:26:51.221Z,18.80
2023-04-24T08:29:18.824Z,18.90
2023-04-24T08:31:45.999Z,19.00
2023-04-24T08:34:13.940Z,19.10
2023-04-24T08:36:46.978Z,19.20
2023-04-24T08:39:15.903Z,19.40
2023-04-24T08:41:44.566Z,19.50
2023-04-24T08:44:13.804Z,19.70
2023-04-24T08:46:41.751Z,19.80
2023-04-24T08:49:09.276Z,19.80
2023-04-24T08:51:38.137Z,19.90
2023-04-24T08:54:06.286Z,20.00
2023-04-24T08:56:35.307Z,20.00
2023-04-24T08:59:03.055Z,20.10
2023-04-24T09:01:33.057Z,20.30
2023-04-24T09:04:04.851Z,20.30
2023-04-24T09:06:33.194Z,20.40
2023-04-24T09:09:04.513Z,20.50
2023-04-24T09:11:33.842Z,20.50
2023-04-24T09:14:02.252Z,20.70
2023-04-24T09:16:29.627Z,20.90
2023-04-24T09:18:57.414Z,21.00
2023-04-24T09:21:24.479Z,21.00
2023-04-24T09:24:06.792Z,21.10
2023-04-24T09:26:36.857Z,21.10
2023-04-24T09:29:05.353Z,21.10
2023-04-24T09:31:32.817Z,21.10
2023-04-24T09:34:02.902Z,21.10
2023-04-24T09:36:39.999Z,21.10
2023-04-24T09:39:09.439Z,21.00
2023-04-24T09:41:44.196Z,21.00
2023-04-24T09:44:18.582Z,20.90
2023-04-24T09:46:50.772Z,20.90
2023-04-24T09:49:25.980Z,21.00
2023-04-24T09:52:03.298Z,21.00
2023-04-24T09:54:30.889Z,21.10
2023-04-24T09:56:58.373Z,21.00
2023-04-24T09:59:25.440Z,21.10
2023-04-24T10:01:53.390Z,21.00
2023-04-24T10:04:21.318Z,21.10
2023-04-24T10:06:50.097Z,21.20
2023-04-24T10:09:18.887Z,21.30
2023-04-24T10:11:48.440Z,21.50
2023-04-24T10:14:22.003Z,21.60
2023-04-24T10:16:50.575Z,21.70
2023-04-24T10:19:21.716Z,21.90
2023-04-24T10:21:49.331Z,22.00
2023-04-24T10:24:18.890Z,22.20
2023-04-24T10:26:48.998Z,22.60
2023-04-24T10:29:18.318Z,23.20
2023-04-24T10:31:47.790Z,23.80
2023-04-24T10:34:17.206Z,24.30
2023-04-24T10:36:57.935Z,24.90
2023-04-24T10:39:27.962Z,25.30
2023-04-24T10:41:59.437Z,25.60
2023-04-24T10:44:36.576Z,26.10
2023-04-24T10:47:04.740Z,26.30
2023-04-24T10:49:33.127Z,26.30
2023-04-24T10:52:08.083Z,26.20
2023-04-24T10:54:48.593Z,25.90
2023-04-24T10:57:19.575Z,25.70
2023-04-24T10:59:47.783Z,25.30
2023-04-24T11:02:19.267Z,25.10
2023-04-24T11:04:47.376Z,24.80
2023-04-24T11:07:14.955Z,24.50
2023-04-24T11:09:44.530Z,24.40
2023-04-24T11:12:15.036Z,24.20
2023-04-24T11:15:11.736Z,24.10
2023-04-24T11:17:43.029Z,24.20
2023-04-24T11:20:28.018Z,24.10
2023-04-24T11:22:56.719Z,24.10
2023-04-24T11:25:24.081Z,24.00
2023-04-24T11:28:03.603Z,24.00
2023-04-24T11:30:32.092Z,23.80
2023-04-24T11:33:08.851Z,23.80
2023-04-24T11:35:38.516Z,23.80
2023-04-24T11:40:37.946Z,23.90
2023-04-24T11:43:07.665Z,24.00
2023-04-24T11:45:35.344Z,23.90
2023-04-24T11:48:04.496Z,24.00
2023-04-24T11:50:31.748Z,24.10
2023-04-24T11:53:00.126Z,24.20
2023-04-24T11:55:28.866Z,24.30
2023-04-24T11:57:58.626Z,24.40
2023-04-24T12:00:28.263Z,24.50
2023-04-24T12:03:10.193Z,24.60
2023-04-24T12:05:37.978Z,24.70
2023-04-24T12:08:06.215Z,24.70
2023-04-24T12:10:35.705Z,24.80
2023-04-24T12:13:03.623Z,24.90
2023-04-24T12:15:31.246Z,25.00
2023-04-24T12:17:58.676Z,25.00
2023-04-24T12:20:31.508Z,25.00
2023-04-24T12:23:01.096Z,25.20
2023-04-24T12:25:33.662Z,25.30
2023-04-24T12:28:04.628Z,25.30
2023-04-24T12:30:37.304Z,25.10
2023-04-24T12:33:04.882Z,25.00
2023-04-24T12:35:34.818Z,25.10
2023-04-24T12:38:10.941Z,25.20
2023-04-24T12:40:38.125Z,25.40
2023-04-24T12:43:20.050Z,25.50
2023-04-24T12:45:48.665Z,25.70
2023-04-24T12:48:16.232Z,25.80
2023-04-24T12:50:46.407Z,25.90
2023-04-24T12:53:14.945Z,25.80
2023-04-24T12:55:42.022Z,26.00
2023-04-24T12:58:09.470Z,26.40
2023-04-24T13:00:37.282Z,26.90
2023-04-24T13:03:05.056Z,27.30
2023-04-24T13:05:32.335Z,27.40
2023-04-24T13:07:59.668Z,27.20
2023-04-24T13:10:26.861Z,26.80
2023-04-24T13:12:55.303Z,26.50
2023-04-24T13:15:22.605Z,26.40
2023-04-24T13:17:50.693Z,26.60
2023-04-24T13:20:18.609Z,26.90
2023-04-24T13:22:46.363Z,27.00
2023-04-24T13:25:13.439Z,26.90
2023-04-24T13:27:40.918Z,26.50
2023-04-24T13:30:08.635Z,26.10
2023-04-24T13:32:36.718Z,25.80
2023-04-24T13:35:04.472Z,25.70
2023-04-24T13:37:31.886Z,25.50
2023-04-24T13:39:59.052Z,25.80
2023-04-24T13:42:26.642Z,26.00
2023-04-24T13:44:55.108Z,26.20
2023-04-24T13:47:22.538Z,25.90
2023-04-24T13:49:49.724Z,25.80
2023-04-24T13:52:17.162Z,25.80
2023-04-24T13:54:44.433Z,25.70
2023-04-24T13:57:11.943Z,25.40
2023-04-24T13:59:41.875Z,25.10
2023-04-24T14:02:09.391Z,24.80
2023-04-24T14:04:37.050Z,24.40
2023-04-24T14:07:04.635Z,24.20
2023-04-24T14:09:31.742Z,23.90
2023-04-24T14:11:59.113Z,23.70
2023-04-24T14:14:26.427Z,23.40
2023-04-24T14:16:53.820Z,23.20
2023-04-24T14:19:21.031Z,23.10
2023-04-24T14:21:48.442Z,22.90
2023-04-24T14:24:16.740Z,22.70
2023-04-24T14:26:44.068Z,22.60
2023-04-24T14:29:15.163Z,22.60
2023-04-24T14:31:43.580Z,22.50
2023-04-24T14:34:11.114Z,22.10
2023-04-24T14:36:38.678Z,21.80
2023-04-24T14:39:08.089Z,21.50
2023-04-24T14:41:37.040Z,21.50
2023-04-24T14:44:05.005Z,21.40
2023-04-24T14:46:32.742Z,21.20
2023-04-24T14:48:59.956Z,20.90
2023-04-24T14:51:27.875Z,20.60
2023-04-24T14:53:55.089Z,20.40
2023-04-24T14:56:22.490Z,20.10
2023-04-24T14:58:49.806Z,19.90
2023-04-24T15:01:18.125Z,19.70
2023-04-24T15:03:46.182Z,19.60
2023-04-24T15:06:13.947Z,19.50
2023-04-24T15:08:43.986Z,19.40
2023-04-24T15:11:11.684Z,19.40
2023-04-24T15:13:39.282Z,19.50
2023-04-24T15:16:06.951Z,19.70
2023-04-24T15:18:33.975Z,19.90
2023-04-24T15:21:01.456Z,19.90
2023-04-24T15:23:28.505Z,20.00
2023-04-24T15:25:55.959Z,20.00
2023-04-24T15:28:23.148Z,20.20
2023-04-24T15:30:50.830Z,20.60
2023-04-24T15:33:17.955Z,21.00
2023-04-24T15:35:45.645Z,21.30
2023-04-24T15:38:12.822Z,21.60
2023-04-24T15:40:40.264Z,21.80
2023-04-24T15:43:07.362Z,21.90
2023-04-24T15:45:35.303Z,22.00
2023-04-24T15:48:02.617Z,21.90
2023-04-24T15:50:30.069Z,21.70
2023-04-24T15:52:57.289Z,21.40
2023-04-24T15:55:25.285Z,21.10
2023-04-24T15:57:52.429Z,20.70
2023-04-24T16:00:21.392Z,20.20
2023-04-24T16:02:50.497Z,19.60
2023-04-24T16:05:19.959Z,19.20
2023-04-24T16:07:47.042Z,18.70
2023-04-24T16:10:14.398Z,18.40
2023-04-24T16:12:41.523Z,18.10
2023-04-24T16:15:09.763Z,17.80
2023-04-24T16:17:36.906Z,17.60
2023-04-24T16:20:05.368Z,17.40
2023-04-24T16:22:32.468Z,17.20
2023-04-24T16:25:00.023Z,17.00
2023-04-24T16:27:29.820Z,16.90
2023-04-24T16:29:57.416Z,16.70
2023-04-24T16:32:24.489Z,16.60
2023-04-24T16:34:52.248Z,16.50
2023-04-24T16:37:20.413Z,16.40
2023-04-24T16:39:47.778Z,16.10
2023-04-24T16:42:15.738Z,16.00
2023-04-24T16:44:43.520Z,15.80
2023-04-24T16:47:13.452Z,15.70
2023-04-24T16:49:41.972Z,15.60
2023-04-24T16:52:09.423Z,15.40
2023-04-24T16:54:36.983Z,15.30
2023-04-24T16:57:05.082Z,15.30
2023-04-24T16:59:35.668Z,15.30
2023-04-24T17:02:02.807Z,15.20
2023-04-24T17:04:32.301Z,15.20
2023-04-24T17:06:59.619Z,15.20
2023-04-24T17:09:27.362Z,15.20
2023-04-24T17:11:55.043Z,15.10
2023-04-24T17:14:24.055Z,15.10
2023-04-24T17:16:51.404Z,15.10
2023-04-24T17:19:19.108Z,15.10
2023-04-24T17:21:46.440Z,15.10
2023-04-24T17:24:14.132Z,15.10
2023-04-24T17:26:41.316Z,15.10
2023-04-24T17:29:08.748Z,15.10
2023-04-24T17:31:36.054Z,15.10
2023-04-24T17:34:03.978Z,15.10
2023-04-24T17:36:31.782Z,15.10
2023-04-24T17:38:59.333Z,15.10
2023-04-24T17:41:26.828Z,15.10
2023-04-24T17:43:54.287Z,15.10
2023-04-24T17:46:21.498Z,15.10
2023-04-24T17:48:49.842Z,15.10
2023-04-24T17:51:17.071Z,15.00
2023-04-24T17:53:44.698Z,15.00
2023-04-24T17:56:11.895Z,15.10
2023-04-24T17:58:40.228Z,15.00
2023-04-24T18:01:07.343Z,15.00
2023-04-24T18:03:34.956Z,15.00
2023-04-24T18:06:02.349Z,15.00
2023-04-24T18:08:29.620Z,15.00
2023-04-24T18:10:57.867Z,14.90
2023-04-24T18:13:25.399Z,14.90
2023-04-24T18:15:52.667Z,14.90
2023-04-24T18:18:20.119Z,14.90
2023-04-24T18:20:47.175Z,14.90
2023-04-24T18:23:14.536Z,14.80
2023-04-24T18:25:41.672Z,14.70
2023-04-24T18:28:09.154Z,14.70
2023-04-24T18:30:36.968Z,14.60
2023-04-24T18:33:04.736Z,14.50
2023-04-24T18:35:32.041Z,14.50
2023-04-24T18:37:59.909Z,14.40
2023-04-24T18:40:27.147Z,14.30
2023-04-24T18:42:56.461Z,14.20
2023-04-24T18:45:23.654Z,14.20
2023-04-24T18:47:51.079Z,14.10
2023-04-24T18:50:19.544Z,14.00
2023-04-24T18:52:46.943Z,13.90
2023-04-24T18:55:14.013Z,13.90
2023-04-24T18:57:41.289Z,13.80
2023-04-24T19:00:08.881Z,13.80
2023-04-24T19:02:36.806Z,13.70
2023-04-24T19:05:04.313Z,13.60
2023-04-24T19:07:31.968Z,13.60
2023-04-24T19:09:59.057Z,13.50
2023-04-24T19:12:26.616Z,13.50
2023-04-24T19:14:56.063Z,13.40
2023-04-24T19:17:25.377Z,13.30
2023-04-24T19:19:52.615Z,13.40
2023-04-24T19:22:23.265Z,13.40
2023-04-24T19:24:50.574Z,13.50
2023-04-24T19:27:17.990Z,13.30
2023-04-24T19:29:45.051Z,13.20
2023-04-24T19:32:12.471Z,13.20
2023-04-24T19:34:40.626Z,13.20
2023-04-24T19:37:08.377Z,13.20
2023-04-24T19:39:35.645Z,13.10
2023-04-24T19:42:07.086Z,13.10
2023-04-24T19:44:34.816Z,13.10
2023-04-24T19:47:02.365Z,13.00
2023-04-24T19:49:29.636Z,13.00
2023-04-24T19:51:56.996Z,12.90
2023-04-24T19:54:24.779Z,12.90
2023-04-24T19:56:52.109Z,12.90
2023-04-24T19:59:19.152Z,12.90
2023-04-24T20:01:47.374Z,12.90
2023-04-24T20:04:14.761Z,12.90
2023-04-24T20:06:42.273Z,12.90
2023-04-24T20:09:10.068Z,12.90
2023-04-24T20:11:37.539Z,12.90
2023-04-24T20:14:06.181Z,12.90
2023-04-24T20:16:33.703Z,12.90
2023-04-24T20:19:00.857Z,13.00
2023-04-24T20:21:28.817Z,13.00
2023-04-24T20:23:56.152Z,13.00
2023-04-24T20:26:23.623Z,13.10
2023-04-24T20:28:50.952Z,13.20
2023-04-24T20:31:19.768Z,13.30
2023-04-24T20:33:46.982Z,13.30
2023-04-24T20:36:14.282Z,13.40
2023-04-24T20:38:41.320Z,13.50
2023-04-24T20:41:10.033Z,13.60
2023-04-24T20:43:37.401Z,13.60
2023-04-24T20:46:05.118Z,13.70
2023-04-24T20:48:32.202Z,13.70
2023-04-24T20:50:59.666Z,13.70
2023-04-24T20:53:26.739Z,13.70
2023-04-24T20:55:54.159Z,13.70
2023-04-24T20:58:22.984Z,13.70
2023-04-24T21:00:51.461Z,13.70
2023-04-24T21:03:18.697Z,13.70
2023-04-24T21:05:46.251Z,13.70
2023-04-24T21:08:13.627Z,13.70
2023-04-24T21:10:41.023Z,13.70
2023-04-24T21:13:08.418Z,13.60
2023-04-24T21:15:35.901Z,13.60
2023-04-24T21:18:03.573Z,13.60
2023-04-24T21:20:31.953Z,13.50
2023-04-24T21:22:59.125Z,13.50
2023-04-24T21:25:27.050Z,13.50
2023-04-24T21:27:54.914Z,13.50
2023-04-24T21:30:25.413Z,13.60
2023-04-24T21:32:53.093Z,13.60
2023-04-24T21:35:20.678Z,13.70
2023-04-24T21:37:47.775Z,13.70
2023-04-24T21:40:16.067Z,13.70
2023-04-24T21:42:43.437Z,13.70
2023-04-24T21:45:11.901Z,13.70
2023-04-24T21:47:39.300Z,13.70
2023-04-24T21:50:07.489Z,13.70
2023-04-24T21:52:34.749Z,13.70
2023-04-24T21:55:02.957Z,13.70
2023-04-24T21:57:30.281Z,13.70
2023-04-24T21:59:57.915Z,13.70
2023-04-24T22:02:25.268Z,13.70
2023-04-24T22:04:53.230Z,13.70
2023-04-24T22:07:20.601Z,13.70
2023-04-24T22:09:48.410Z,13.70
2023-04-24T22:12:16.275Z,13.70
2023-04-24T22:14:43.887Z,13.60
2023-04-24T22:17:15.200Z,13.60
2023-04-24T22:19:43.594Z,13.60
2023-04-24T22:22:10.804Z,13.50
2023-04-24T22:24:38.305Z,13.50
2023-04-24T22:27:06.072Z,13.50
2023-04-24T22:29:33.724Z,13.40
2023-04-24T22:32:01.196Z,13.40
2023-04-24T22:34:28.644Z,13.40
2023-04-24T22:36:56.500Z,13.30
2023-04-24T22:39:23.907Z,13.30
2023-04-24T22:41:51.462Z,13.30
2023-04-24T22:44:19.132Z,13.20
2023-04-24T22:46:47.848Z,13.10
2023-04-24T22:49:16.336Z,13.00
2023-04-24T22:51:44.595Z,13.00
2023-04-24T22:54:11.909Z,12.90
2023-04-24T22:56:39.115Z,12.90
2023-04-24T22:59:06.652Z,12.90
2023-04-24T23:01:34.103Z,12.80
2023-04-24T23:04:01.890Z,12.80
2023-04-24T23:06:29.153Z,12.80
2023-04-24T23:08:56.558Z,12.80
2023-04-24T23:11:23.703Z,12.80
2023-04-24T23:13:51.444Z,12.70
2023-04-24T23:16:18.537Z,12.60
2023-04-24T23:18:45.937Z,12.60
2023-04-24T23:21:13.448Z,12.60
2023-04-24T23:23:41.211Z,12.50
2023-04-24T23:26:09.395Z,12.50
2023-04-24T23:28:37.565Z,12.50
2023-04-24T23:31:04.843Z,12.50
2023-04-24T23:33:32.390Z,12.40
2023-04-24T23:36:00.138Z,12.40
2023-04-24T23:38:31.954Z,12.40
2023-04-24T23:41:03.972Z,12.30
2023-04-24T23:43:31.696Z,12.30
2023-04-24T23:45:58.768Z,12.30
2023-04-24T23:48:26.282Z,12.20
2023-04-24T23:50:53.590Z,12.20
2023-04-24T23:53:21.437Z,12.20
2023-04-24T23:55:48.710Z,12.10
2023-04-24T23:58:15.986Z,12.10
